Main page
METAR-TAF:

METAR-TAF

Airports :

Germán Olano Airport

Puerto Carreño, Colombia

latitude: 06-10N, longitude: 067-30W, elevation: 55 m

Current weather observation

The report was made 57 minutes ago, at 11:00 UTC
Calm wind
Temperature 27°C
Humidity 84%
Pressure 1008 hPa
Visibility: 6000 m

METAR: SKPC 011100Z 00000KT 6000 NSC 27/24 A2978 RMK HZ

Time: 06:57 (11:57 UTC)


TAF: missing

Weather observations and forecasts of more than 4000 airports (METAR and TAF reports).

The available stations are represented by yellow and red dots on the map.

Hover mouse over dot to see the name of the station.

Then click to see weather observations and forecasts.

To change the map : click on the green buttons with a black cross to zoom in, on the green button with a dash to zoom out, or on the green arrows for adjacent maps.


METAR-TAF: